Dades meteomassalio
Diari Summary for Juny 17, 2017 Units:  English    Metric   Both
« Previous Day
Next Day »
Diari Semanal Mensual Anual Personalitzat
  Maxima: Minima: Mijana:
Temperatura: TemperatureC °F 16.6 °F 27.9 °F
Rosada: DewpointC °F 7.8 °F 12.8 °F
Humitat: Humidity % 17 % 43 %
Velocitat del vent: WindSpeedKMH mph 0.0 mph 5.6 mph
Racha vent: WindSpeedGustKMH mph - -
Vent:- - SSW
Pressio: PressurehPa in 1011.7 in -
Pluja: 0.0 in    
Historical Graphs
 
 
Tabular Data for Juny 17, 2017
Time Temperature Dew Point Pressure Wind Wind Speed Wind Gust Humidity Rainfall Rate (Hourly) solar Conditions
TemperatureC °F DewpointC °F PressurehPa in Calm     Humidity % HourlyPrecipMM in SolarRadiationWatts/m^2 W/m2 Conditions
00:02 24.5 °F 13.7 °F 1017.2 in Calm     51 % 0.0 in 0.0 W/m2 CLR
00:07 24.4 °F 13.6 °F 1017.2 in Calm     51 % 0.0 in 0.0 W/m2 CLR
00:12 24.3 °F 13.8 °F 1017.2 in Calm     52 % 0.0 in 0.0 W/m2 CLR
00:17 24.2 °F 13.7 °F 1017.2 in Calm     52 % 0.0 in 0.0 W/m2 CLR
00:22 24.0 °F 13.8 °F 1017.2 in Calm     53 % 0.0 in 0.0 W/m2 CLR
00:27 23.9 °F 13.8 °F 1017.2 in Calm     53 % 0.0 in 0.0 W/m2 CLR
00:32 23.9 °F 13.4 °F 1017.5 in Calm     52 % 0.0 in 0.0 W/m2 CLR
00:37 23.9 °F 13.7 °F 1017.5 in Calm     53 % 0.0 in 0.0 W/m2 CLR
00:42 23.9 °F 13.7 °F 1017.5 in Calm     53 % 0.0 in 0.0 W/m2 CLR
00:47 23.9 °F 15.7 °F 1017.5 in Calm     60 % 0.0 in 0.0 W/m2 CLR
00:52 23.7 °F 15.8 °F 1017.5 in Calm     61 % 0.0 in 0.0 W/m2 CLR
00:57 23.5 °F 15.6 °F 1017.5 in Calm     61 % 0.0 in 0.0 W/m2 CLR
01:02 23.3 °F 15.7 °F 1017.5 in Calm     62 % 0.0 in 0.0 W/m2 CLR
01:07 23.3 °F 15.1 °F 1017.8 in Calm     60 % 0.0 in 0.0 W/m2 CLR
01:12 23.2 °F 13.9 °F 1017.8 in Calm     56 % 0.0 in 0.0 W/m2 CLR
01:17 23.2 °F 14.4 °F 1017.8 in Calm     58 % 0.0 in 0.0 W/m2 CLR
01:22 23.2 °F 15.6 °F 1017.8 in Calm     62 % 0.0 in 0.0 W/m2 CLR
01:27 23.0 °F 15.1 °F 1017.8 in Calm     61 % 0.0 in 0.0 W/m2 CLR
01:32 23.0 °F 13.7 °F 1017.8 in Calm     56 % 0.0 in 0.0 W/m2 CLR
01:37 23.1 °F 13.2 °F 1017.8 in Calm     54 % 0.0 in 0.0 W/m2 CLR
01:42 23.3 °F 11.3 °F 1017.8 in Calm     47 % 0.0 in 0.0 W/m2 CLR
01:47 23.8 °F 11.8 °F 1017.8 in Calm     47 % 0.0 in 0.0 W/m2 CLR
01:52 23.9 °F 10.9 °F 1017.8 in Calm     44 % 0.0 in 0.0 W/m2 CLR
01:57 24.0 °F 11.0 °F 1017.8 in Calm     44 % 0.0 in 0.0 W/m2 CLR
02:02 24.0 °F 11.3 °F 1017.8 in Calm     45 % 0.0 in 0.0 W/m2 CLR
02:07 23.9 °F 11.6 °F 1017.8 in Calm     46 % 0.0 in 0.0 W/m2 CLR
02:12 23.8 °F 12.4 °F 1017.8 in Calm     49 % 0.0 in 0.0 W/m2 CLR
02:17 23.4 °F 13.0 °F 1017.8 in Calm     52 % 0.0 in 0.0 W/m2 CLR
02:22 23.1 °F 12.7 °F 1017.8 in Calm     52 % 0.0 in 0.0 W/m2 CLR
02:28 22.8 °F 13.6 °F 1017.8 in Calm     56 % 0.0 in 0.0 W/m2 CLR
02:33 22.5 °F 12.4 °F 1017.8 in Calm     53 % 0.0 in 0.0 W/m2 CLR
02:38 22.3 °F 12.2 °F 1017.8 in Calm     53 % 0.0 in 0.0 W/m2 CLR
02:43 21.9 °F 11.6 °F 1017.8 in Calm     52 % 0.0 in 0.0 W/m2 CLR
02:48 21.8 °F 10.9 °F 1017.8 in Calm     50 % 0.0 in 0.0 W/m2 CLR
02:53 21.7 °F 11.7 °F 1017.8 in Calm     53 % 0.0 in 0.0 W/m2 CLR
02:58 21.4 °F 11.2 °F 1017.8 in Calm     52 % 0.0 in 0.0 W/m2 CLR
03:03 21.3 °F 10.8 °F 1017.8 in Calm     51 % 0.0 in 0.0 W/m2 CLR
03:08 21.3 °F 10.7 °F 1018.2 in Calm     51 % 0.0 in 0.0 W/m2 CLR
03:13 21.3 °F 10.4 °F 1017.8 in Calm     50 % 0.0 in 0.0 W/m2 CLR
03:18 21.3 °F 10.7 °F 1017.8 in Calm     51 % 0.0 in 0.0 W/m2 CLR
03:23 21.2 °F 10.9 °F 1018.2 in Calm     52 % 0.0 in 0.0 W/m2 CLR
03:28 21.2 °F 10.0 °F 1018.2 in Calm     49 % 0.0 in 0.0 W/m2 CLR
03:33 21.2 °F 10.1 °F 1018.2 in Calm     49 % 0.0 in 0.0 W/m2 CLR
03:38 21.3 °F 10.1 °F 1017.8 in Calm     49 % 0.0 in 0.0 W/m2 CLR
03:43 21.4 °F 9.6 °F 1017.8 in Calm     47 % 0.0 in 0.0 W/m2 CLR
03:48 21.4 °F 11.1 °F 1018.2 in Calm     52 % 0.0 in 0.0 W/m2 CLR
03:53 20.9 °F 12.3 °F 1018.2 in Calm     58 % 0.0 in 0.0 W/m2 CLR
03:58 20.4 °F 13.2 °F 1018.2 in Calm     63 % 0.0 in 0.0 W/m2 CLR
04:03 20.0 °F 13.0 °F 1017.8 in Calm     64 % 0.0 in 0.0 W/m2 CLR
04:08 19.4 °F 12.9 °F 1018.2 in Calm     66 % 0.0 in 0.0 W/m2 CLR
04:13 19.3 °F 12.6 °F 1018.2 in Calm     65 % 0.0 in 0.0 W/m2 CLR
04:18 19.4 °F 11.5 °F 1018.2 in Calm     60 % 0.0 in 0.0 W/m2 CLR
04:23 19.6 °F 11.6 °F 1018.2 in Calm     60 % 0.0 in 0.0 W/m2 CLR
04:28 19.7 °F 12.5 °F 1018.2 in Calm     63 % 0.0 in 0.0 W/m2 CLR
04:33 19.6 °F 13.1 °F 1018.2 in Calm     66 % 0.0 in 0.0 W/m2 CLR
04:38 19.2 °F 12.9 °F 1018.2 in Calm     67 % 0.0 in 0.0 W/m2 CLR
04:43 18.9 °F 12.8 °F 1018.2 in Calm     68 % 0.0 in 0.0 W/m2 CLR
04:48 18.5 °F 12.7 °F 1018.2 in Calm     69 % 0.0 in 0.0 W/m2 CLR
04:53 18.3 °F 12.3 °F 1018.2 in Calm     68 % 0.0 in 0.0 W/m2 CLR
04:58 18.4 °F 12.4 °F 1018.2 in Calm     68 % 0.0 in 0.0 W/m2 CLR
05:03 18.3 °F 11.2 °F 1018.2 in Calm     63 % 0.0 in 0.0 W/m2 CLR
05:08 18.2 °F 11.1 °F 1018.2 in Calm     63 % 0.0 in 0.0 W/m2 CLR
05:13 18.1 °F 10.9 °F 1018.2 in Calm     63 % 0.0 in 0.0 W/m2 CLR
05:18 18.0 °F 10.8 °F 1017.8 in Calm     63 % 0.0 in 0.0 W/m2 CLR
05:23 17.9 °F 10.8 °F 1017.8 in Calm     63 % 0.0 in 0.0 W/m2 CLR
05:28 18.0 °F 10.8 °F 1017.8 in Calm     63 % 0.0 in 0.0 W/m2 CLR
05:33 18.1 °F 10.9 °F 1017.8 in Calm     63 % 0.0 in 0.0 W/m2 CLR
05:38 18.0 °F 11.1 °F 1017.8 in Calm     64 % 0.0 in 0.0 W/m2 CLR
05:43 17.9 °F 11.0 °F 1017.8 in Calm     64 % 0.0 in 0.0 W/m2 CLR
05:48 17.7 °F 10.6 °F 1018.2 in Calm     63 % 0.0 in 0.0 W/m2 CLR
05:53 17.5 °F 10.6 °F 1018.2 in Calm     64 % 0.0 in 0.0 W/m2 CLR
05:58 17.3 °F 11.4 °F 1017.8 in Calm     68 % 0.0 in 0.0 W/m2 CLR
06:03 17.2 °F 11.7 °F 1018.2 in Calm     70 % 0.0 in 0.0 W/m2 CLR
06:08 17.0 °F 11.5 °F 1018.2 in Calm     70 % 0.0 in 0.0 W/m2 CLR
06:13 16.8 °F 11.3 °F 1018.2 in Calm     70 % 0.0 in 0.0 W/m2 CLR
06:18 16.6 °F 10.9 °F 1018.2 in Calm     69 % 0.0 in 0.0 W/m2 OVC
06:23 16.6 °F 10.7 °F 1018.2 in Calm     68 % 0.0 in 0.0 W/m2 OVC
06:28 16.7 °F 10.7 °F 1018.2 in Calm     68 % 0.0 in 5.0 W/m2 OVC
06:33 16.6 °F 10.4 °F 1018.2 in Calm     67 % 0.0 in 7.0 W/m2 OVC
06:38 16.7 °F 10.5 °F 1018.2 in Calm     67 % 0.0 in 9.0 W/m2 BKN
06:43 16.7 °F 10.3 °F 1018.2 in Calm     66 % 0.0 in 11.0 W/m2 BKN
06:48 16.8 °F 10.4 °F 1018.2 in Calm     66 % 0.0 in 12.0 W/m2 BKN
06:53 16.8 °F 10.6 °F 1018.2 in Calm     67 % 0.0 in 14.0 W/m2 BKN
06:58 16.7 °F 11.0 °F 1018.2 in Calm     69 % 0.0 in 16.0 W/m2 BKN
07:03 16.6 °F 10.9 °F 1018.2 in Calm     69 % 0.0 in 21.0 W/m2 BKN
07:08 16.6 °F 10.8 °F 1018.5 in Calm     69 % 0.0 in 35.0 W/m2 BKN
07:13 16.7 °F 11.2 °F 1018.5 in Calm     70 % 0.0 in 44.0 W/m2 BKN
07:18 16.8 °F 10.8 °F 1018.5 in Calm     68 % 0.0 in 56.0 W/m2 SCT
07:23 17.0 °F 11.1 °F 1018.5 in Calm     68 % 0.0 in 69.0 W/m2 FEW
07:28 17.3 °F 11.2 °F 1018.5 in Calm     67 % 0.0 in 81.0 W/m2 FEW
07:33 17.6 °F 11.2 °F 1018.5 in Calm     66 % 0.0 in 95.0 W/m2 FEW
07:38 17.9 °F 11.2 °F 1018.2 in Calm     65 % 0.0 in 113.0 W/m2 CLR
07:43 18.3 °F 11.6 °F 1018.2 in Calm     65 % 0.0 in 127.0 W/m2 CLR
07:48 18.7 °F 11.5 °F 1018.2 in Calm     63 % 0.0 in 142.0 W/m2 CLR
07:53 19.2 °F 11.4 °F 1018.2 in Calm     61 % 0.0 in 160.0 W/m2 CLR
07:58 19.6 °F 12.4 °F 1018.2 in Calm     63 % 0.0 in 179.0 W/m2 CLR
08:03 20.0 °F 12.5 °F 1018.2 in Calm     62 % 0.0 in 197.0 W/m2 CLR
08:08 20.4 °F 12.4 °F 1018.2 in Calm     60 % 0.0 in 211.0 W/m2 CLR
08:18 21.1 °F 12.5 °F 1018.2 in Calm     58 % 0.0 in 244.0 W/m2 CLR
08:23 21.4 °F 12.8 °F 1018.2 in Calm     58 % 0.0 in 260.0 W/m2 CLR
08:28 21.8 °F 13.2 °F 1018.2 in Calm     58 % 0.0 in 274.0 W/m2 CLR
08:33 22.1 °F 13.4 °F 1018.2 in Calm     58 % 0.0 in 288.0 W/m2 CLR
08:38 22.4 °F 13.5 °F 1017.8 in Calm     57 % 0.0 in 306.0 W/m2 CLR
08:49 23.7 °F 12.9 °F 1018.2 in West 13.0 mph 13.0 mph 51 % 0.0 in 338.0 W/m2 CLR
08:54 23.9 °F 13.2 °F 1017.8 in WNW 18.5 mph 18.5 mph 51 % 0.0 in 352.0 W/m2 CLR
08:59 24.2 °F 13.1 °F 1017.8 in NW 18.5 mph 18.5 mph 50 % 0.0 in 371.0 W/m2 CLR
09:04 24.4 °F 13.3 °F 1017.8 in WNW 14.5 mph 14.5 mph 50 % 0.0 in 385.0 W/m2 CLR
09:09 24.6 °F 13.1 °F 1017.8 in WNW 13.0 mph 13.0 mph 49 % 0.0 in 401.0 W/m2 CLR
09:14 24.7 °F 12.9 °F 1017.8 in West 16.7 mph 16.7 mph 48 % 0.0 in 415.0 W/m2 CLR
09:19 24.8 °F 12.7 °F 1017.8 in WNW 16.1 mph 16.1 mph 47 % 0.0 in 429.0 W/m2 CLR
09:24 24.9 °F 12.8 °F 1017.8 in WNW 16.7 mph 16.7 mph 47 % 0.0 in 446.0 W/m2 CLR
09:29 25.1 °F 13.0 °F 1017.8 in WNW 13.0 mph 13.0 mph 47 % 0.0 in 461.0 W/m2 CLR
09:34 25.3 °F 13.2 °F 1017.8 in WNW 14.8 mph 14.8 mph 47 % 0.0 in 475.0 W/m2 CLR
09:39 25.4 °F 13.3 °F 1017.8 in WNW 16.1 mph 16.1 mph 47 % 0.0 in 489.0 W/m2 CLR
09:44 25.6 °F 13.4 °F 1017.8 in Calm     47 % 0.0 in 504.0 W/m2 CLR
09:49 25.9 °F 13.4 °F 1017.8 in NW 18.5 mph 18.5 mph 46 % 0.0 in 520.0 W/m2 CLR
09:54 25.9 °F 13.4 °F 1017.8 in NW 18.5 mph 18.5 mph 46 % 0.0 in 536.0 W/m2 CLR
09:59 26.1 °F 13.2 °F 1017.8 in WNW 18.5 mph 18.5 mph 45 % 0.0 in 548.0 W/m2 CLR
10:04 26.2 °F 13.7 °F 1017.8 in WNW 20.4 mph 20.4 mph 46 % 0.0 in 564.0 W/m2 CLR
10:09 26.3 °F 13.7 °F 1017.8 in NW 20.4 mph 20.4 mph 46 % 0.0 in 580.0 W/m2 CLR
10:14 26.5 °F 13.6 °F 1017.8 in WNW 18.5 mph 18.5 mph 45 % 0.0 in 591.0 W/m2 CLR
10:19 26.6 °F 13.7 °F 1017.5 in NW 18.5 mph 18.5 mph 45 % 0.0 in 605.0 W/m2 CLR
10:24 26.8 °F 13.5 °F 1017.5 in NW 16.7 mph 16.7 mph 44 % 0.0 in 621.0 W/m2 CLR
10:29 26.9 °F 13.3 °F 1017.5 in WNW 3.7 mph 3.7 mph 43 % 0.0 in 638.0 W/m2 CLR
10:34 27.1 °F 13.4 °F 1017.5 in NNW 18.5 mph 18.5 mph 43 % 0.0 in 649.0 W/m2 CLR
10:39 27.2 °F 13.6 °F 1017.5 in NNW 20.4 mph 20.4 mph 43 % 0.0 in 659.0 W/m2 CLR
10:44 27.4 °F 13.3 °F 1017.5 in West 18.5 mph 18.5 mph 42 % 0.0 in 673.0 W/m2 CLR
10:49 27.2 °F 13.5 °F 1017.5 in West 18.5 mph 18.5 mph 43 % 0.0 in 687.0 W/m2 CLR
10:54 27.2 °F 13.6 °F 1017.5 in West 5.6 mph 5.6 mph 43 % 0.0 in 700.0 W/m2 CLR
10:59 27.5 °F 13.8 °F 1017.2 in NW 19.3 mph 19.3 mph 43 % 0.0 in 714.0 W/m2 CLR
11:04 27.8 °F 13.7 °F 1017.2 in NW 16.7 mph 16.7 mph 42 % 0.0 in 724.0 W/m2 CLR
11:09 28.0 °F 14.3 °F 1017.2 in West 18.5 mph 18.5 mph 43 % 0.0 in 737.0 W/m2 CLR
11:14 27.9 °F 14.2 °F 1017.2 in Calm     43 % 0.0 in 747.0 W/m2 CLR
11:19 28.2 °F 13.7 °F 1017.2 in NNW 20.4 mph 20.4 mph 41 % 0.0 in 758.0 W/m2 CLR
11:24 28.4 °F 13.9 °F 1017.2 in NNW 6.4 mph 6.4 mph 41 % 0.0 in 768.0 W/m2 CLR
11:29 28.7 °F 14.1 °F 1016.8 in North 14.8 mph 14.8 mph 41 % 0.0 in 780.0 W/m2 CLR
11:34 28.7 °F 13.8 °F 1016.8 in Calm     40 % 0.0 in 793.0 W/m2 CLR
11:39 29.1 °F 14.5 °F 1016.8 in NNW 18.5 mph 18.5 mph 41 % 0.0 in 802.0 W/m2 CLR
11:44 29.2 °F 14.2 °F 1016.8 in WNW 20.4 mph 20.4 mph 40 % 0.0 in 807.0 W/m2 CLR
11:49 29.3 °F 13.6 °F 1016.8 in NW 16.7 mph 16.7 mph 38 % 0.0 in 823.0 W/m2 CLR
11:54 29.5 °F 14.1 °F 1016.8 in WSW 18.5 mph 18.5 mph 39 % 0.0 in 830.0 W/m2 CLR
11:59 29.6 °F 13.7 °F 1016.8 in NW 16.7 mph 16.7 mph 38 % 0.0 in 838.0 W/m2 CLR
12:00 29.6 °F 13.7 °F 1016.8 in NNW 16.7 mph 16.7 mph 38 % 0.0 in 838.0 W/m2 CLR
12:05 29.9 °F 14.1 °F 1016.5 in WNW 16.7 mph 16.7 mph 38 % 0.0 in 847.0 W/m2 CLR
12:10 30.2 °F 13.9 °F 1016.8 in NNW 11.1 mph   37 % 0.0 in 856.0 W/m2 CLR
12:15 30.3 °F 13.6 °F 1016.8 in NNW 20.4 mph 20.4 mph 36 % 0.0 in 865.0 W/m2 CLR
12:20 30.3 °F 13.6 °F 1016.5 in NW 24.1 mph 24.1 mph 36 % 0.0 in 874.0 W/m2 CLR
12:25 30.5 °F 13.7 °F 1016.5 in WNW 18.5 mph 18.5 mph 36 % 0.0 in 881.0 W/m2 CLR
12:30 30.6 °F 13.8 °F 1016.5 in NNW 5.6 mph   36 % 0.0 in 888.0 W/m2 CLR
12:35 30.9 °F 13.2 °F 1016.5 in NNW 27.8 mph 27.8 mph 34 % 0.0 in 896.0 W/m2 CLR
12:40 30.9 °F 13.3 °F 1016.5 in North 18.5 mph 18.5 mph 34 % 0.0 in 898.0 W/m2 CLR
12:45 31.1 °F 12.9 °F 1016.5 in WNW 14.8 mph 14.8 mph 33 % 0.0 in 909.0 W/m2 CLR
12:50 31.0 °F 13.3 °F 1016.1 in NNW 16.1 mph 16.1 mph 34 % 0.0 in 912.0 W/m2 CLR
12:55 31.2 °F 13.5 °F 1016.1 in North 16.7 mph 16.7 mph 34 % 0.0 in 918.0 W/m2 CLR
13:00 31.3 °F 14.1 °F 1016.1 in North 16.1 mph 16.1 mph 35 % 0.0 in 921.0 W/m2 CLR
13:05 31.6 °F 13.3 °F 1016.1 in NNW 17.7 mph 17.7 mph 33 % 0.0 in 925.0 W/m2 CLR
13:10 31.6 °F 13.4 °F 1016.1 in NW 20.4 mph 20.4 mph 33 % 0.0 in 933.0 W/m2 CLR
13:15 31.6 °F 13.4 °F 1016.1 in Calm     33 % 0.0 in 933.0 W/m2 CLR
13:20 31.8 °F 13.1 °F 1016.1 in WSW 7.4 mph 7.4 mph 32 % 0.0 in 939.0 W/m2 CLR
13:25 32.0 °F 13.2 °F 1016.1 in NW 20.9 mph 20.9 mph 32 % 0.0 in 940.0 W/m2 CLR
13:30 32.3 °F 13.1 °F 1015.8 in Calm     31 % 0.0 in 942.0 W/m2 CLR
13:35 32.6 °F 12.8 °F 1015.8 in NNW 5.6 mph 5.6 mph 30 % 0.0 in 946.0 W/m2 CLR
13:40 32.8 °F 13.5 °F 1015.8 in WNW 8.0 mph 8.0 mph 31 % 0.0 in 946.0 W/m2 CLR
13:45 32.9 °F 13.5 °F 1015.8 in NNW 13.0 mph 13.0 mph 31 % 0.0 in 949.0 W/m2 CLR
13:50 32.8 °F 13.9 °F 1015.5 in NNE 7.4 mph   32 % 0.0 in 949.0 W/m2 CLR
13:55 33.1 °F 13.7 °F 1015.5 in Calm     31 % 0.0 in 947.0 W/m2 CLR
14:00 33.2 °F 13.8 °F 1015.5 in Calm     31 % 0.0 in 949.0 W/m2 CLR
14:05 33.6 °F 14.1 °F 1015.5 in Calm     31 % 0.0 in 947.0 W/m2 CLR
14:10 33.7 °F 13.7 °F 1015.5 in NNE 8.0 mph 8.0 mph 30 % 0.0 in 947.0 W/m2 CLR
14:15 33.5 °F 14.1 °F 1015.5 in NNE 11.1 mph 11.1 mph 31 % 0.0 in 947.0 W/m2 CLR
14:20 33.3 °F 13.9 °F 1015.1 in Calm     31 % 0.0 in 947.0 W/m2 CLR
14:25 33.5 °F 14.1 °F 1015.1 in NW 14.8 mph 14.8 mph 31 % 0.0 in 944.0 W/m2 CLR
14:30 33.4 °F 14.0 °F 1015.1 in North 4.8 mph 4.8 mph 31 % 0.0 in 939.0 W/m2 CLR
14:35 33.5 °F 14.6 °F 1015.1 in Calm     32 % 0.0 in 942.0 W/m2 CLR
14:40 33.8 °F 14.3 °F 1015.1 in Calm     31 % 0.0 in 935.0 W/m2 CLR
14:45 34.3 °F 13.7 °F 1014.8 in North 9.3 mph 9.3 mph 29 % 0.0 in 935.0 W/m2 CLR
14:50 34.4 °F 13.8 °F 1014.8 in North 6.4 mph 6.4 mph 29 % 0.0 in 935.0 W/m2 CLR
14:55 34.4 °F 14.3 °F 1014.8 in Calm     30 % 0.0 in 928.0 W/m2 CLR
15:00 34.6 °F 14.0 °F 1014.8 in Calm     29 % 0.0 in 928.0 W/m2 CLR
15:03 34.8 °F 14.1 °F 1014.4 in NW 11.3 mph 11.3 mph 29 % 0.0 in 923.0 W/m2 CLR
15:08 34.8 °F 14.1 °F 1014.4 in NW 12.9 mph 12.9 mph 29 % 0.0 in 923.0 W/m2 CLR
15:13 34.5 °F 13.9 °F 1014.4 in NNW 5.6 mph 5.6 mph 29 % 0.0 in 916.0 W/m2 CLR
15:18 34.6 °F 13.4 °F 1014.4 in Calm     28 % 0.0 in 907.0 W/m2 CLR
15:23 34.8 °F 14.2 °F 1014.4 in NNW 5.6 mph 5.6 mph 29 % 0.0 in 900.0 W/m2 CLR
15:28 34.8 °F 13.6 °F 1014.1 in North 5.6 mph 5.6 mph 28 % 0.0 in 896.0 W/m2 CLR
15:33 35.0 °F 13.8 °F 1014.1 in NE 11.3 mph 11.3 mph 28 % 0.0 in 888.0 W/m2 CLR
15:38 35.2 °F 13.9 °F 1014.1 in Calm     28 % 0.0 in 884.0 W/m2 CLR
15:43 35.4 °F 13.0 °F 1013.8 in NNE 13.0 mph 13.0 mph 26 % 0.0 in 879.0 W/m2 CLR
15:48 35.4 °F 12.4 °F 1013.8 in NE 13.0 mph 13.0 mph 25 % 0.0 in 870.0 W/m2 CLR
15:53 35.4 °F 12.4 °F 1013.8 in North 1.9 mph   25 % 0.0 in 868.0 W/m2 CLR
15:58 35.4 °F 11.8 °F 1013.8 in North 11.1 mph 11.1 mph 24 % 0.0 in 860.0 W/m2 CLR
16:03 35.6 °F 11.2 °F 1013.8 in NE 5.6 mph 5.6 mph 23 % 0.0 in 854.0 W/m2 CLR
16:08 35.7 °F 11.3 °F 1013.8 in Calm     23 % 0.0 in 838.0 W/m2 CLR
16:13 35.8 °F 10.8 °F 1013.4 in WNW 9.3 mph 9.3 mph 22 % 0.0 in 828.0 W/m2 CLR
16:18 35.7 °F 10.7 °F 1013.4 in Calm     22 % 0.0 in 814.0 W/m2 CLR
16:23 35.8 °F 10.1 °F 1013.4 in Calm     21 % 0.0 in 810.0 W/m2 CLR
16:28 36.0 °F 10.2 °F 1013.4 in Calm     21 % 0.0 in 795.0 W/m2 CLR
16:33 36.1 °F 9.6 °F 1013.4 in NE 3.7 mph 3.7 mph 20 % 0.0 in 788.0 W/m2 CLR
16:38 36.4 °F 8.3 °F 1013.4 in Calm     18 % 0.0 in 780.0 W/m2 CLR
16:43 36.4 °F 9.1 °F 1013.1 in Calm     19 % 0.0 in 768.0 W/m2 CLR
16:44 36.4 °F 9.1 °F 1013.1 in Calm     19 % 0.0 in 765.0 W/m2 CLR
16:49 36.5 °F 9.9 °F 1013.1 in ESE 4.8 mph 4.8 mph 20 % 0.0 in 758.0 W/m2 CLR
16:54 36.5 °F 9.9 °F 1013.1 in Calm   0.3 mph 20 % 0.0 in 744.0 W/m2 CLR
16:59 36.4 °F 10.6 °F 1013.1 in Calm     21 % 0.0 in 729.0 W/m2 CLR
17:04 36.7 °F 10.8 °F 1012.8 in ENE 5.6 mph 5.6 mph 21 % 0.0 in 717.0 W/m2 CLR
17:09 36.7 °F 10.8 °F 1012.8 in ENE 13.0 mph 13.0 mph 21 % 0.0 in 705.0 W/m2 CLR
17:14 36.7 °F 10.8 °F 1012.8 in NNE 9.7 mph 9.7 mph 21 % 0.0 in 693.0 W/m2 CLR
17:19 36.6 °F 10.7 °F 1012.8 in Calm   0.6 mph 21 % 0.0 in 680.0 W/m2 CLR
17:24 36.6 °F 10.7 °F 1012.8 in ENE 5.6 mph 5.6 mph 21 % 0.0 in 666.0 W/m2 CLR
17:29 36.7 °F 10.1 °F 1012.4 in ENE 3.7 mph 3.7 mph 20 % 0.0 in 654.0 W/m2 CLR
17:34 36.7 °F 9.3 °F 1012.4 in ENE 5.6 mph 5.6 mph 19 % 0.0 in 642.0 W/m2 CLR
17:39 36.8 °F 8.6 °F 1012.4 in ENE 5.6 mph 5.6 mph 18 % 0.0 in 629.0 W/m2 CLR
17:44 36.8 °F 7.8 °F 1012.4 in NE 7.4 mph 7.4 mph 17 % 0.0 in 612.0 W/m2 CLR
17:49 36.9 °F 7.9 °F 1012.4 in ENE 6.4 mph 6.4 mph 17 % 0.0 in 598.0 W/m2 CLR
17:54 37.1 °F 8.8 °F 1012.1 in Calm     18 % 0.0 in 587.0 W/m2 CLR
17:59 37.2 °F 8.9 °F 1012.1 in NNE 7.4 mph 7.4 mph 18 % 0.0 in 578.0 W/m2 CLR
18:04 37.3 °F 9.0 °F 1012.1 in ENE 5.6 mph 5.6 mph 18 % 0.0 in 561.0 W/m2 CLR
18:09 37.1 °F 8.8 °F 1012.1 in SE 5.6 mph 5.6 mph 18 % 0.0 in 548.0 W/m2 CLR
18:14 36.8 °F 8.6 °F 1012.1 in ENE 6.4 mph 6.4 mph 18 % 0.0 in 533.0 W/m2 CLR
18:19 36.8 °F 8.6 °F 1012.1 in Calm     18 % 0.0 in 520.0 W/m2 CLR
18:24 36.9 °F 10.2 °F 1012.1 in NNE 1.9 mph   20 % 0.0 in 499.0 W/m2 CLR
18:29 37.1 °F 10.4 °F 1012.1 in NE 7.4 mph 7.4 mph 20 % 0.0 in 489.0 W/m2 CLR
18:34 37.3 °F 10.6 °F 1011.7 in North 5.6 mph 5.6 mph 20 % 0.0 in 469.0 W/m2 CLR
18:39 37.4 °F 9.9 °F 1011.7 in NNW 5.6 mph 5.6 mph 19 % 0.0 in 459.0 W/m2 CLR
18:44 37.4 °F 9.9 °F 1011.7 in North 7.4 mph 7.4 mph 19 % 0.0 in 446.0 W/m2 CLR
18:49 37.3 °F 9.8 °F 1011.7 in North 9.7 mph 9.7 mph 19 % 0.0 in 431.0 W/m2 CLR
18:54 37.3 °F 9.8 °F 1011.7 in Calm     19 % 0.0 in 413.0 W/m2 CLR
18:59 37.2 °F 9.7 °F 1011.7 in NE 7.4 mph 7.4 mph 19 % 0.0 in 399.0 W/m2 CLR
19:04 37.1 °F 10.4 °F 1011.7 in Calm     20 % 0.0 in 385.0 W/m2 CLR
19:09 37.2 °F 9.7 °F 1011.7 in North 7.4 mph 7.4 mph 19 % 0.0 in 366.0 W/m2 CLR
19:14 37.2 °F 9.7 °F 1011.7 in Calm     19 % 0.0 in 346.0 W/m2 CLR
19:19 37.2 °F 9.7 °F 1011.7 in Calm     19 % 0.0 in 334.0 W/m2 CLR
19:24 37.1 °F 10.4 °F 1011.7 in Calm     20 % 0.0 in 320.0 W/m2 CLR
19:29 37.3 °F 10.6 °F 1011.7 in Calm   0.2 mph 20 % 0.0 in 306.0 W/m2 CLR
19:34 37.1 °F 11.2 °F 1011.7 in Calm     21 % 0.0 in 287.0 W/m2 CLR
19:39 37.1 °F 9.7 °F 1011.7 in Calm     19 % 0.0 in 269.0 W/m2 CLR
19:44 37.2 °F 10.5 °F 1011.7 in ENE 3.2 mph 3.2 mph 20 % 0.0 in 255.0 W/m2 CLR
19:49 36.9 °F 9.5 °F 1011.7 in Calm     19 % 0.0 in 239.0 W/m2 CLR
19:54 36.8 °F 10.2 °F 1011.7 in NE 5.6 mph 5.6 mph 20 % 0.0 in 218.0 W/m2 CLR
19:59 36.7 °F 10.8 °F 1011.7 in Calm     21 % 0.0 in 202.0 W/m2 CLR
20:04 36.5 °F 10.7 °F 1011.7 in Calm     21 % 0.0 in 185.0 W/m2 CLR
20:09 36.4 °F 9.9 °F 1011.7 in Calm     20 % 0.0 in 167.0 W/m2 CLR
20:14 36.4 °F 9.9 °F 1011.7 in NE 1.6 mph   20 % 0.0 in 148.0 W/m2 CLR
20:19 36.3 °F 10.5 °F 1011.7 in NNE 1.9 mph 1.9 mph 21 % 0.0 in 132.0 W/m2 CLR
20:24 35.8 °F 15.0 °F 1011.7 in East 16.7 mph 16.7 mph 29 % 0.0 in 116.0 W/m2 CLR
20:29 34.7 °F 16.1 °F 1011.7 in ESE 14.8 mph 14.8 mph 33 % 0.0 in 100.0 W/m2 CLR
20:34 34.2 °F 16.1 °F 1011.7 in ESE 13.0 mph 13.0 mph 34 % 0.0 in 86.0 W/m2 CLR
20:39 33.8 °F 16.7 °F 1011.7 in ESE 16.7 mph 16.7 mph 36 % 0.0 in 70.0 W/m2 FEW
20:44 33.6 °F 16.9 °F 1011.7 in ESE 13.0 mph 13.0 mph 37 % 0.0 in 42.0 W/m2 SCT
20:49 33.4 °F 17.2 °F 1011.7 in SE 5.6 mph   38 % 0.0 in 46.0 W/m2 SCT
20:54 33.3 °F 16.6 °F 1011.7 in SE 16.7 mph 16.7 mph 37 % 0.0 in 39.0 W/m2 BKN
20:59 33.1 °F 16.9 °F 1011.7 in SE 8.0 mph 8.0 mph 38 % 0.0 in 28.0 W/m2 BKN
21:04 33.0 °F 16.8 °F 1011.7 in SE 13.0 mph 13.0 mph 38 % 0.0 in 21.0 W/m2 BKN
21:09 32.8 °F 16.7 °F 1011.7 in SE 13.0 mph 13.0 mph 38 % 0.0 in 16.0 W/m2 BKN
21:14 32.7 °F 16.5 °F 1011.7 in Calm     38 % 0.0 in 14.0 W/m2 BKN
21:19 32.5 °F 16.3 °F 1011.7 in SE 14.8 mph 14.8 mph 38 % 0.0 in 11.0 W/m2 BKN
21:21 32.5 °F 16.3 °F 1011.7 in SE 16.7 mph 16.7 mph 38 % 0.0 in 11.0 W/m2 BKN
21:25 32.3 °F 16.2 °F 1011.7 in SE 14.8 mph 14.8 mph 38 % 0.0 in 9.0 W/m2 BKN
21:30 32.1 °F 16.4 °F 1011.7 in SE 9.7 mph 9.7 mph 39 % 0.0 in 7.0 W/m2 BKN
21:35 31.9 °F 16.2 °F 1011.7 in SE 11.1 mph 11.1 mph 39 % 0.0 in 5.0 W/m2 OVC
21:40 31.7 °F 16.4 °F 1011.7 in SE 9.3 mph 9.3 mph 40 % 0.0 in 0.0 W/m2 OVC
21:45 31.6 °F 16.3 °F 1011.7 in SSE 13.0 mph 13.0 mph 40 % 0.0 in 0.0 W/m2 OVC
21:50 31.4 °F 16.6 °F 1012.1 in SE 13.0 mph 13.0 mph 41 % 0.0 in 0.0 W/m2 CLR
21:55 31.3 °F 16.4 °F 1012.1 in SSE 11.1 mph 11.1 mph 41 % 0.0 in 0.0 W/m2 CLR
21:56 31.2 °F 16.4 °F 1012.1 in SSE 14.8 mph 14.8 mph 41 % 0.0 in 0.0 W/m2 CLR
22:01 31.1 °F 16.6 °F 1012.1 in SE 16.7 mph 16.7 mph 42 % 0.0 in 0.0 W/m2 CLR
22:06 30.9 °F 16.8 °F 1012.1 in SE 7.4 mph 7.4 mph 43 % 0.0 in 0.0 W/m2 CLR
22:11 30.7 °F 17.1 °F 1012.1 in Calm     44 % 0.0 in 0.0 W/m2 CLR
22:16 30.5 °F 16.9 °F 1012.4 in Calm     44 % 0.0 in 0.0 W/m2 CLR
22:17 30.4 °F 16.8 °F 1012.4 in SE 5.6 mph 5.6 mph 44 % 0.0 in 0.0 W/m2 CLR
22:22 30.3 °F 17.0 °F 1012.4 in SSE 11.3 mph 11.3 mph 45 % 0.0 in 0.0 W/m2 CLR
22:27 30.1 °F 17.2 °F 1012.4 in SE 9.7 mph 9.7 mph 46 % 0.0 in 0.0 W/m2 CLR
22:32 29.9 °F 17.3 °F 1012.4 in SSE 13.0 mph 13.0 mph 47 % 0.0 in 0.0 W/m2 CLR
22:37 29.7 °F 17.2 °F 1012.4 in SE 11.3 mph 11.3 mph 47 % 0.0 in 0.0 W/m2 CLR
22:42 29.5 °F 17.0 °F 1012.4 in SE 13.0 mph 13.0 mph 47 % 0.0 in 0.0 W/m2 CLR
22:43 29.5 °F 17.3 °F 1012.4 in SE 13.0 mph 13.0 mph 48 % 0.0 in 0.0 W/m2 CLR
22:48 29.3 °F 17.1 °F 1012.4 in SSE 11.1 mph 11.1 mph 48 % 0.0 in 0.0 W/m2 CLR
22:53 29.2 °F 17.1 °F 1012.8 in SE 9.3 mph 9.3 mph 48 % 0.0 in 0.0 W/m2 CLR
22:58 29.1 °F 16.9 °F 1012.8 in ESE 11.1 mph 11.1 mph 48 % 0.0 in 0.0 W/m2 CLR
23:03 29.0 °F 17.2 °F 1012.8 in Calm     49 % 0.0 in 0.0 W/m2 CLR
23:08 28.8 °F 17.0 °F 1013.1 in Calm     49 % 0.0 in 0.0 W/m2 CLR
23:13 28.6 °F 17.2 °F 1013.1 in Calm     50 % 0.0 in 0.0 W/m2 CLR
23:18 28.6 °F 17.1 °F 1013.1 in SE 9.3 mph 9.3 mph 50 % 0.0 in 0.0 W/m2 CLR
23:23 28.5 °F 17.1 °F 1013.1 in Calm     50 % 0.0 in 0.0 W/m2 CLR
23:28 28.4 °F 16.9 °F 1013.1 in Calm     50 % 0.0 in 0.0 W/m2 CLR
23:33 28.3 °F 16.9 °F 1013.1 in Calm     50 % 0.0 in 0.0 W/m2 CLR
23:38 28.2 °F 17.1 °F 1013.1 in Calm     51 % 0.0 in 0.0 W/m2 CLR
23:43 28.1 °F 16.9 °F 1013.1 in Calm     51 % 0.0 in 0.0 W/m2 CLR
23:48 27.7 °F 16.9 °F 1013.1 in Calm     52 % 0.0 in 0.0 W/m2 CLR
23:53 27.4 °F 16.9 °F 1013.4 in Calm     53 % 0.0 in 0.0 W/m2 CLR
23:58 27.2 °F 16.8 °F 1013.4 in Calm     53 % 0.0 in 0.0 W/m2 CLR
Lo Temps de Massalio
Compliments of Weather Underground - 1.25 mb